createdAt,value
2019-04-01T00:02:11.633Z,17.57
2019-04-01T00:04:42.160Z,15.77
2019-04-01T00:07:12.733Z,19.53
2019-04-01T00:09:43.302Z,14.90
2019-04-01T00:12:13.929Z,17.53
2019-04-01T00:14:44.713Z,17.90
2019-04-01T00:17:15.179Z,25.93
2019-04-01T00:19:45.959Z,17.97
2019-04-01T00:22:16.561Z,20.30
2019-04-01T00:24:47.071Z,15.97
2019-04-01T00:27:17.635Z,14.03
2019-04-01T00:29:48.101Z,19.50
2019-04-01T00:32:18.657Z,16.53
2019-04-01T00:34:49.236Z,15.60
2019-04-01T00:37:19.770Z,13.30
2019-04-01T00:39:50.242Z,17.97
2019-04-01T00:42:25.650Z,17.73
2019-04-01T00:44:56.100Z,19.43
2019-04-01T00:47:26.711Z,16.57
2019-04-01T00:49:58.407Z,15.30
2019-04-01T00:52:28.887Z,16.00
2019-04-01T00:54:59.467Z,18.73
2019-04-01T00:57:29.994Z,17.30
2019-04-01T01:00:00.603Z,19.90
2019-04-01T01:02:31.186Z,15.20
2019-04-01T01:05:01.810Z,16.17
2019-04-01T01:07:32.432Z,12.53
2019-04-01T01:10:02.965Z,17.13
2019-04-01T01:12:33.435Z,13.13
2019-04-01T01:15:04.156Z,15.27
2019-04-01T01:17:34.807Z,16.93
2019-04-01T01:20:06.209Z,18.50
2019-04-01T01:22:36.740Z,14.63
2019-04-01T01:25:07.325Z,16.73
2019-04-01T01:27:38.266Z,14.23
2019-04-01T01:30:09.277Z,10.40
2019-04-01T01:32:40.197Z,18.37
2019-04-01T01:35:10.783Z,15.90
2019-04-01T01:37:41.334Z,18.47
2019-04-01T01:40:12.107Z,20.07
2019-04-01T01:42:42.730Z,14.80
2019-04-01T01:45:13.194Z,14.80
2019-04-01T01:47:43.655Z,12.20
2019-04-01T01:50:14.387Z,16.60
2019-04-01T01:52:44.969Z,15.53
2019-04-01T01:55:15.482Z,14.60
2019-04-01T01:57:46.212Z,15.77
2019-04-01T02:00:17.053Z,13.47
2019-04-01T02:02:47.594Z,13.47
2019-04-01T02:05:18.253Z,14.33
2019-04-01T02:07:48.874Z,13.87
2019-04-01T02:10:19.710Z,10.90
2019-04-01T02:12:50.220Z,14.73
2019-04-01T02:15:20.875Z,11.70
2019-04-01T02:17:51.382Z,14.67
2019-04-01T02:20:21.877Z,17.33
2019-04-01T02:22:52.444Z,15.50
2019-04-01T02:25:23.279Z,12.00
2019-04-01T02:27:54.898Z,15.97
2019-04-01T02:30:25.583Z,9.43
2019-04-01T02:32:56.151Z,9.90
2019-04-01T02:35:26.898Z,9.60
2019-04-01T02:37:57.453Z,13.43
2019-04-01T02:40:28.033Z,13.73
2019-04-01T02:42:58.787Z,10.27
2019-04-01T02:45:29.661Z,12.50
2019-04-01T02:48:00.120Z,12.77
2019-04-01T02:50:30.711Z,11.70
2019-04-01T02:53:01.250Z,14.20
2019-04-01T02:55:31.776Z,11.93
2019-04-01T02:58:02.710Z,13.70
2019-04-01T03:00:33.186Z,11.40
2019-04-01T03:03:03.967Z,9.80
2019-04-01T03:05:34.441Z,10.70
2019-04-01T03:08:04.892Z,13.90
2019-04-01T03:10:35.433Z,9.27
2019-04-01T03:13:05.997Z,11.57
2019-04-01T03:15:37.046Z,14.33
2019-04-01T03:18:07.487Z,11.87
2019-04-01T03:20:38.176Z,11.43
2019-04-01T03:23:09.726Z,12.67
2019-04-01T03:25:40.407Z,15.87
2019-04-01T03:28:10.902Z,13.13
2019-04-01T03:30:41.715Z,16.93
2019-04-01T03:33:12.224Z,12.50
2019-04-01T03:35:42.721Z,16.67
2019-04-01T03:38:13.398Z,14.23
2019-04-01T03:40:43.841Z,10.83
2019-04-01T03:43:14.331Z,12.70
2019-04-01T03:45:45.161Z,16.37
2019-04-01T03:48:15.639Z,15.13
2019-04-01T03:50:46.129Z,16.60
2019-04-01T03:53:16.574Z,23.60
2019-04-01T03:55:47.095Z,19.57
2019-04-01T03:58:17.758Z,14.13
2019-04-01T04:00:49.284Z,15.40
2019-04-01T04:03:20.134Z,17.00
2019-04-01T04:05:50.623Z,15.13
2019-04-01T04:08:21.198Z,19.23
2019-04-01T04:10:51.814Z,15.60
2019-04-01T04:13:22.354Z,18.67
2019-04-01T04:15:52.987Z,15.93
2019-04-01T04:18:23.762Z,23.17
2019-04-01T04:20:54.354Z,19.60
2019-04-01T04:23:24.837Z,17.97
2019-04-01T04:25:55.537Z,16.33
2019-04-01T04:28:26.165Z,14.37
2019-04-01T04:30:56.795Z,21.60
2019-04-01T04:33:27.329Z,18.47
2019-04-01T04:35:59.037Z,23.67
2019-04-01T04:38:29.569Z,17.80
2019-04-01T04:41:03.081Z,16.53
2019-04-01T04:43:37.010Z,24.53
2019-04-01T04:46:13.918Z,21.93
2019-04-01T04:48:44.403Z,19.83
2019-04-01T04:51:14.825Z,21.37
2019-04-01T04:53:45.558Z,26.13
2019-04-01T04:56:16.109Z,25.87
2019-04-01T04:58:46.636Z,22.93
2019-04-01T05:01:17.222Z,20.67
2019-04-01T05:03:47.823Z,23.33
2019-04-01T05:06:18.639Z,19.97
2019-04-01T05:08:49.164Z,14.47
2019-04-01T05:11:19.764Z,16.30
2019-04-01T05:13:50.257Z,12.97
2019-04-01T05:16:20.863Z,17.63
2019-04-01T05:18:51.634Z,15.23
2019-04-01T05:21:22.527Z,15.67
2019-04-01T05:23:54.475Z,15.87
2019-04-01T05:26:27.052Z,12.97
2019-04-01T05:29:00.600Z,12.27
2019-04-01T05:31:34.127Z,16.97
2019-04-01T05:34:05.481Z,25.93
2019-04-01T05:36:36.188Z,11.83
2019-04-01T05:39:07.957Z,12.57
2019-04-01T05:41:38.445Z,17.07
2019-04-01T05:44:10.089Z,21.00
2019-04-01T05:46:40.614Z,21.00
2019-04-01T05:49:11.501Z,11.73
2019-04-01T05:51:41.959Z,12.97
2019-04-01T05:54:13.749Z,10.53
2019-04-01T05:56:44.250Z,14.47
2019-04-01T05:59:14.949Z,16.00
2019-04-01T06:01:47.099Z,14.00
2019-04-01T06:04:17.645Z,13.30
2019-04-01T06:06:49.017Z,13.43
2019-04-01T06:09:19.933Z,18.50
2019-04-01T06:11:50.448Z,16.30
2019-04-01T06:14:21.229Z,16.80
2019-04-01T06:16:51.711Z,17.70
2019-04-01T06:19:22.591Z,11.23
2019-04-01T06:21:53.797Z,11.67
2019-04-01T06:24:24.817Z,10.10
2019-04-01T06:26:55.546Z,8.60
2019-04-01T06:29:26.257Z,9.07
2019-04-01T06:31:56.870Z,6.57
2019-04-01T06:34:27.571Z,6.97
2019-04-01T06:36:58.130Z,9.47
2019-04-01T06:39:28.709Z,6.97
2019-04-01T06:41:59.474Z,5.67
2019-04-01T06:44:29.955Z,5.73
2019-04-01T06:47:00.587Z,7.93
2019-04-01T06:49:31.547Z,6.97
2019-04-01T06:52:02.292Z,4.87
2019-04-01T06:54:33.136Z,5.60
2019-04-01T06:57:03.613Z,7.47
2019-04-01T06:59:34.493Z,6.17
2019-04-01T07:02:05.039Z,14.00
2019-04-01T07:04:35.700Z,5.73
2019-04-01T07:07:18.219Z,7.03
2019-04-01T07:09:38.645Z,7.93
2019-04-01T07:12:09.341Z,7.67
2019-04-01T07:14:39.913Z,12.77
2019-04-01T07:17:10.683Z,5.67
2019-04-01T07:19:41.235Z,6.50
2019-04-01T07:22:13.001Z,3.43
2019-04-01T07:24:43.642Z,5.67
2019-04-01T07:27:14.219Z,2.67
2019-04-01T07:29:44.773Z,3.43
2019-04-01T07:32:15.313Z,3.63
2019-04-01T07:34:46.130Z,2.93
2019-04-01T07:37:18.177Z,4.23
2019-04-01T07:39:48.724Z,9.73
2019-04-01T07:42:20.380Z,9.23
2019-04-01T07:44:51.067Z,5.40
2019-04-01T07:47:21.926Z,6.67
2019-04-01T07:49:53.203Z,3.50
2019-04-01T07:52:23.773Z,3.03
2019-04-01T07:54:54.368Z,4.50
2019-04-01T07:57:25.343Z,4.20
2019-04-01T07:59:56.928Z,3.93
2019-04-01T08:02:27.584Z,5.20
2019-04-01T08:04:58.872Z,3.57
2019-04-01T08:07:29.354Z,8.17
2019-04-01T08:09:59.950Z,9.40
2019-04-01T08:12:30.740Z,6.67
2019-04-01T08:15:01.248Z,9.73
2019-04-01T08:17:33.053Z,5.50
2019-04-01T08:20:03.895Z,6.70
2019-04-01T08:22:34.412Z,9.50
2019-04-01T08:25:06.483Z,6.77
2019-04-01T08:27:37.484Z,4.60
2019-04-01T08:30:08.764Z,6.43
2019-04-01T08:32:39.303Z,3.50
2019-04-01T08:35:10.234Z,5.20
2019-04-01T08:37:40.906Z,6.97
2019-04-01T08:40:11.875Z,4.03
2019-04-01T08:42:42.683Z,4.33
2019-04-01T08:45:13.251Z,6.43
2019-04-01T08:47:44.019Z,8.80
2019-04-01T08:50:14.662Z,4.33
2019-04-01T08:52:46.273Z,4.73
2019-04-01T08:55:16.809Z,4.83
2019-04-01T08:57:47.361Z,5.10
2019-04-01T09:00:18.279Z,4.23
2019-04-01T09:02:48.883Z,7.63
2019-04-01T09:05:19.439Z,3.03
2019-04-01T09:07:50.472Z,3.90
2019-04-01T09:10:21.259Z,12.47
2019-04-01T09:12:52.679Z,5.13
2019-04-01T09:15:23.355Z,2.37
2019-04-01T09:17:54.448Z,8.20
2019-04-01T09:23:52.482Z,3.97
2019-04-01T09:26:22.976Z,3.33
2019-04-01T09:28:54.784Z,4.80
2019-04-01T09:31:25.336Z,4.37
2019-04-01T09:33:55.867Z,10.30
2019-04-01T09:36:26.423Z,4.50
2019-04-01T09:38:58.128Z,4.00
2019-04-01T09:41:28.687Z,3.90
2019-04-01T09:43:59.649Z,3.37
2019-04-01T09:46:30.114Z,5.07
2019-04-01T09:49:00.582Z,2.13
2019-04-01T09:51:31.110Z,5.27
2019-04-01T09:54:01.618Z,5.73
2019-04-01T09:56:32.138Z,3.33
2019-04-01T09:59:08.202Z,2.17
2019-04-01T10:01:43.699Z,3.57
2019-04-01T10:04:21.431Z,3.53
2019-04-01T10:06:54.825Z,1.60
2019-04-01T10:09:27.450Z,2.83
2019-04-01T10:12:00.546Z,5.43
2019-04-01T10:14:31.946Z,1.40
2019-04-01T10:17:02.669Z,3.80
2019-04-01T10:19:33.481Z,1.60
2019-04-01T10:22:03.984Z,7.60
2019-04-01T10:24:40.336Z,2.30
2019-04-01T10:27:11.015Z,0.70
2019-04-01T10:29:42.441Z,2.50
2019-04-01T10:32:13.341Z,1.47
2019-04-01T10:34:43.949Z,1.60
2019-04-01T10:37:14.547Z,4.87
2019-04-01T10:39:45.128Z,5.80
2019-04-01T10:42:15.854Z,2.53
2019-04-01T10:44:46.449Z,8.47
2019-04-01T10:47:20.339Z,6.60
2019-04-01T10:49:51.075Z,1.30
2019-04-01T10:52:21.827Z,3.40
2019-04-01T10:54:52.375Z,3.43
2019-04-01T10:57:23.021Z,2.10
2019-04-01T10:59:53.643Z,3.00
2019-04-01T11:02:24.464Z,2.70
2019-04-01T11:04:55.304Z,11.23
2019-04-01T11:07:25.912Z,7.33
2019-04-01T11:09:56.756Z,4.80
2019-04-01T11:12:29.300Z,1.67
2019-04-01T11:14:59.932Z,2.30
2019-04-01T11:17:30.539Z,8.67
2019-04-01T11:20:01.166Z,3.63
2019-04-01T11:22:31.971Z,3.30
2019-04-01T11:25:04.031Z,4.37
2019-04-01T11:27:34.595Z,4.57
2019-04-01T11:30:07.778Z,2.60
2019-04-01T11:32:40.328Z,4.27
2019-04-01T11:35:11.262Z,4.13
2019-04-01T11:37:42.001Z,10.50
2019-04-01T11:40:12.917Z,6.90
2019-04-01T11:42:43.665Z,2.83
2019-04-01T11:45:14.242Z,2.63
2019-04-01T11:47:44.825Z,3.60
2019-04-01T11:50:15.868Z,2.77
2019-04-01T11:52:46.350Z,6.43
2019-04-01T11:55:16.926Z,7.40
2019-04-01T11:57:47.422Z,5.73
2019-04-01T12:00:19.411Z,2.27
2019-04-01T12:02:49.919Z,2.33
2019-04-01T12:05:21.762Z,3.27
2019-04-01T12:07:55.306Z,6.70
2019-04-01T12:10:25.884Z,1.37
2019-04-01T12:12:56.577Z,4.03
2019-04-01T12:15:27.497Z,7.30
2019-04-01T12:17:58.987Z,2.07
2019-04-01T12:20:29.513Z,1.60
2019-04-01T12:22:59.967Z,3.30
2019-04-01T12:25:30.512Z,4.07
2019-04-01T12:28:01.395Z,3.17
2019-04-01T12:30:31.846Z,2.37
2019-04-01T12:33:02.805Z,1.53
2019-04-01T12:35:33.234Z,9.07
2019-04-01T12:38:04.216Z,7.50
2019-04-01T12:40:34.800Z,2.33
2019-04-01T12:43:05.602Z,4.27
2019-04-01T12:45:36.512Z,10.50
2019-04-01T12:48:13.760Z,5.67
2019-04-01T12:50:44.471Z,7.70
2019-04-01T12:53:14.932Z,8.50
2019-04-01T12:55:45.461Z,3.37
2019-04-01T12:58:17.825Z,11.97
2019-04-01T13:00:48.406Z,3.03
2019-04-01T13:03:18.970Z,1.90
2019-04-01T13:05:49.523Z,4.30
2019-04-01T13:08:19.976Z,2.50
2019-04-01T13:10:50.536Z,8.28
2019-04-01T13:13:22.823Z,5.50
2019-04-01T13:15:53.521Z,7.00
2019-04-01T13:18:24.088Z,6.33
2019-04-01T13:20:54.847Z,6.42
2019-04-01T13:23:25.357Z,7.33
2019-04-01T13:25:56.045Z,10.32
2019-04-01T13:28:26.483Z,4.05
2019-04-01T13:30:56.937Z,2.33
2019-04-01T13:33:27.545Z,1.20
2019-04-01T13:35:58.034Z,16.42
2019-04-01T13:38:28.627Z,7.72
2019-04-01T13:40:59.489Z,9.83
2019-04-01T13:43:30.049Z,4.10
2019-04-01T13:46:00.839Z,4.10
2019-04-01T13:48:31.309Z,3.80
2019-04-01T13:51:01.778Z,1.47
2019-04-01T13:53:32.318Z,4.75
2019-04-01T13:56:03.776Z,5.40
2019-04-01T13:58:34.464Z,1.30
2019-04-01T14:01:04.912Z,3.72
2019-04-01T14:03:35.434Z,1.05
2019-04-01T14:06:06.224Z,2.95
2019-04-01T14:08:36.924Z,5.28
2019-04-01T14:11:07.420Z,3.62
2019-04-01T14:13:37.870Z,2.98
2019-04-01T14:16:09.231Z,3.33
2019-04-01T14:18:40.282Z,1.87
2019-04-01T14:21:17.430Z,3.00
2019-04-01T14:23:43.254Z,2.05
2019-04-01T14:26:13.834Z,1.80
2019-04-01T14:28:44.461Z,4.55
2019-04-01T14:31:15.174Z,2.33
2019-04-01T14:33:45.723Z,4.30
2019-04-01T14:36:16.381Z,2.33
2019-04-01T14:38:46.947Z,1.40
2019-04-01T14:41:17.783Z,12.85
2019-04-01T14:43:48.663Z,6.70
2019-04-01T14:46:19.173Z,6.87
2019-04-01T14:48:49.648Z,2.70
2019-04-01T14:51:20.522Z,2.73
2019-04-01T14:53:51.125Z,9.00
2019-04-01T14:56:21.847Z,3.60
2019-04-01T14:58:53.019Z,4.93
2019-04-01T15:01:24.002Z,6.70
2019-04-01T15:03:54.363Z,5.17
2019-04-01T15:06:26.433Z,7.43
2019-04-01T15:08:57.315Z,2.93
2019-04-01T15:11:28.136Z,4.03
2019-04-01T15:14:00.187Z,2.47
2019-04-01T15:16:30.832Z,4.13
2019-04-01T15:19:08.264Z,9.37
2019-04-01T15:21:39.102Z,3.83
2019-04-01T15:24:09.793Z,2.43
2019-04-01T15:26:41.496Z,4.97
2019-04-01T15:29:12.098Z,1.30
2019-04-01T15:31:42.964Z,1.47
2019-04-01T15:34:13.366Z,2.73
2019-04-01T15:36:44.150Z,4.37
2019-04-01T15:39:15.431Z,2.37
2019-04-01T15:41:46.057Z,2.60
2019-04-01T15:44:16.496Z,2.77
2019-04-01T15:46:47.195Z,2.20
2019-04-01T15:49:17.943Z,1.27
2019-04-01T15:51:48.802Z,1.27
2019-04-01T15:54:19.889Z,3.80
2019-04-01T15:56:50.342Z,1.07
2019-04-01T15:59:21.213Z,2.53
2019-04-01T16:01:51.886Z,2.20
2019-04-01T16:04:22.400Z,6.20
2019-04-01T16:06:52.783Z,1.97
2019-04-01T16:09:23.358Z,3.07
2019-04-01T16:11:54.341Z,4.50
2019-04-01T16:14:26.267Z,3.07
2019-04-01T16:16:56.863Z,3.00
2019-04-01T16:19:29.052Z,1.83
2019-04-01T16:21:59.872Z,6.37
2019-04-01T16:24:30.590Z,2.57
2019-04-01T16:27:01.517Z,3.43
2019-04-01T16:29:32.272Z,1.57
2019-04-01T16:32:02.877Z,2.67
2019-04-01T16:34:34.847Z,1.40
2019-04-01T16:37:05.878Z,3.05
2019-04-01T16:39:36.892Z,3.17
2019-04-01T16:42:07.496Z,3.40
2019-04-01T16:44:38.276Z,2.13
2019-04-01T16:47:10.115Z,9.13
2019-04-01T16:49:41.212Z,2.63
2019-04-01T16:52:15.273Z,7.23
2019-04-01T16:54:56.878Z,5.87
2019-04-01T16:57:27.802Z,5.93
2019-04-01T16:59:58.360Z,4.97
2019-04-01T17:02:32.788Z,8.27
2019-04-01T17:05:02.104Z,7.57
2019-04-01T17:07:32.746Z,6.73
2019-04-01T17:10:04.282Z,4.67
2019-04-01T17:12:35.352Z,7.37
2019-04-01T17:15:06.482Z,7.77
2019-04-01T17:17:37.021Z,9.50
2019-04-01T17:20:08.493Z,9.23
2019-04-01T17:22:38.996Z,9.67
2019-04-01T17:25:09.764Z,12.47
2019-04-01T17:27:40.257Z,9.23
2019-04-01T17:30:11.779Z,10.00
2019-04-01T17:32:42.482Z,15.80
2019-04-01T17:35:13.583Z,12.30
2019-04-01T17:37:44.768Z,14.57
2019-04-01T17:40:17.260Z,19.37
2019-04-01T17:42:47.882Z,15.53
2019-04-01T17:45:37.002Z,19.47
2019-04-01T17:48:08.042Z,17.10
2019-04-01T17:50:39.007Z,17.10
2019-04-01T17:53:11.061Z,26.10
2019-04-01T17:55:45.187Z,20.37
2019-04-01T17:58:15.529Z,15.60
2019-04-01T18:00:51.849Z,20.57
2019-04-01T18:03:22.580Z,22.30
2019-04-01T18:05:53.594Z,26.10
2019-04-01T18:08:24.073Z,23.47
2019-04-01T18:10:57.145Z,20.20
2019-04-01T18:13:29.146Z,21.87
2019-04-01T18:16:00.034Z,26.03
2019-04-01T18:18:33.892Z,19.47
2019-04-01T18:21:03.440Z,27.70
2019-04-01T18:23:35.467Z,23.07
2019-04-01T18:26:06.853Z,21.20
2019-04-01T18:28:37.568Z,25.27
2019-04-01T18:31:08.439Z,24.33
2019-04-01T18:33:39.226Z,28.40
2019-04-01T18:36:10.193Z,25.07
2019-04-01T18:38:41.184Z,32.60
2019-04-01T18:41:11.856Z,28.10
2019-04-01T18:43:42.683Z,31.23
2019-04-01T18:46:13.469Z,28.40
2019-04-01T18:48:43.960Z,32.20
2019-04-01T18:51:14.710Z,30.00
2019-04-01T18:53:45.839Z,36.10
2019-04-01T18:56:16.576Z,36.30
2019-04-01T18:58:47.682Z,33.93
2019-04-01T19:01:18.676Z,41.97
2019-04-01T19:03:49.728Z,41.50
2019-04-01T19:06:20.668Z,41.67
2019-04-01T19:08:51.362Z,47.60
2019-04-01T19:11:22.345Z,45.60
2019-04-01T19:13:53.683Z,50.13
2019-04-01T19:16:24.680Z,43.67
2019-04-01T19:18:56.032Z,64.43
2019-04-01T19:21:26.812Z,64.93
2019-04-01T19:23:57.501Z,60.40
2019-04-01T19:26:28.656Z,67.23
2019-04-01T19:28:59.545Z,56.77
2019-04-01T19:31:30.307Z,64.83
2019-04-01T19:34:00.914Z,56.87
2019-04-01T19:36:32.104Z,64.27
2019-04-01T19:39:03.400Z,69.23
2019-04-01T19:41:35.571Z,66.57
2019-04-01T19:44:06.502Z,72.50
2019-04-01T19:46:38.158Z,84.80
2019-04-01T19:49:09.167Z,74.93
2019-04-01T19:51:40.391Z,79.07
2019-04-01T19:54:33.572Z,75.00
2019-04-01T19:57:02.954Z,73.47
2019-04-01T19:59:35.757Z,79.47
2019-04-01T20:02:09.287Z,78.07
2019-04-01T20:04:38.426Z,72.43
2019-04-01T20:07:09.213Z,78.53
2019-04-01T20:09:40.029Z,74.90
2019-04-01T20:12:12.015Z,75.13
2019-04-01T20:14:43.057Z,75.47
2019-04-01T20:17:13.754Z,70.93
2019-04-01T20:19:44.724Z,77.03
2019-04-01T20:22:15.544Z,80.07
2019-04-01T20:24:47.911Z,84.67
2019-04-01T20:27:20.747Z,75.17
2019-04-01T20:29:51.646Z,74.50
2019-04-01T20:32:22.216Z,81.90
2019-04-01T20:34:57.142Z,74.13
2019-04-01T20:37:25.307Z,80.40
2019-04-01T20:39:56.250Z,80.77
2019-04-01T20:42:27.108Z,86.63
2019-04-01T20:44:57.609Z,88.97
2019-04-01T20:47:28.515Z,93.13
2019-04-01T20:49:59.551Z,95.47
2019-04-01T20:52:30.901Z,93.53
2019-04-01T20:55:01.796Z,101.43
2019-04-01T20:57:33.291Z,97.23
2019-04-01T21:00:05.565Z,95.53
2019-04-01T21:02:37.026Z,101.27
2019-04-01T21:05:09.427Z,103.63
2019-04-01T21:07:40.441Z,108.00
2019-04-01T21:10:11.495Z,110.50
2019-04-01T21:12:43.077Z,106.50
2019-04-01T21:15:14.165Z,114.80
2019-04-01T21:17:45.011Z,119.43
2019-04-01T21:20:16.045Z,115.30
2019-04-01T21:22:46.701Z,103.73
2019-04-01T21:25:17.657Z,108.00
2019-04-01T21:27:48.278Z,102.47
2019-04-01T21:30:20.149Z,99.43
2019-04-01T21:32:51.311Z,107.50
2019-04-01T21:35:22.209Z,103.37
2019-04-01T21:37:52.961Z,85.07
2019-04-01T21:40:23.738Z,91.87
2019-04-01T21:42:54.434Z,83.03
2019-04-01T21:45:25.465Z,91.87
2019-04-01T21:47:57.580Z,78.70
2019-04-01T21:50:29.687Z,78.83
2019-04-01T21:53:02.172Z,79.53
2019-04-01T21:55:33.802Z,71.17
2019-04-01T21:58:04.813Z,73.30
2019-04-01T22:00:46.050Z,68.57
2019-04-01T22:03:18.065Z,74.47
2019-04-01T22:05:48.688Z,68.30
2019-04-01T22:08:19.283Z,67.73
2019-04-01T22:10:49.742Z,69.50
2019-04-01T22:13:20.662Z,71.33
2019-04-01T22:15:51.828Z,62.70
2019-04-01T22:18:22.673Z,64.97
2019-04-01T22:20:53.957Z,62.00
2019-04-01T22:23:24.557Z,63.93
2019-04-01T22:25:55.167Z,61.33
2019-04-01T22:28:25.889Z,63.63
2019-04-01T22:30:56.377Z,57.87
2019-04-01T22:33:28.420Z,54.10
2019-04-01T22:35:59.117Z,56.87
2019-04-01T22:38:30.119Z,52.70
2019-04-01T22:41:01.223Z,47.43
2019-04-01T22:43:32.042Z,46.00
2019-04-01T22:46:02.926Z,48.00
2019-04-01T22:48:34.455Z,47.43
2019-04-01T22:51:05.477Z,44.23
2019-04-01T22:53:36.100Z,41.37
2019-04-01T22:56:06.821Z,35.80
2019-04-01T22:58:37.758Z,39.40
2019-04-01T23:01:08.240Z,42.07
2019-04-01T23:03:39.237Z,38.87
2019-04-01T23:06:11.079Z,40.30
2019-04-01T23:08:41.610Z,33.43
2019-04-01T23:11:12.686Z,34.27
2019-04-01T23:13:43.680Z,33.07
2019-04-01T23:16:14.224Z,27.43
2019-04-01T23:18:45.732Z,27.50
2019-04-01T23:21:16.472Z,22.83
2019-04-01T23:23:47.834Z,22.70
2019-04-01T23:26:18.730Z,19.50
2019-04-01T23:28:50.479Z,22.63
2019-04-01T23:31:21.358Z,17.80
2019-04-01T23:33:52.176Z,20.60
2019-04-01T23:36:22.868Z,18.07
2019-04-01T23:38:53.534Z,17.93
2019-04-01T23:41:24.096Z,18.20
2019-04-01T23:43:55.492Z,19.23
2019-04-01T23:46:27.111Z,18.60
2019-04-01T23:48:57.937Z,17.80
2019-04-01T23:51:28.481Z,17.30
2019-04-01T23:53:59.073Z,14.80
2019-04-01T23:56:29.887Z,15.10
2019-04-01T23:59:01.951Z,15.33
